sensor_id;sensor_type;location;lat;lon;timestamp;temperature;humidity
2767;DHT22;1391;46.74287300;11.63683300;2024-03-22T00:02:07;6.20;93.20
2767;DHT22;1391;46.74287300;11.63683300;2024-03-22T00:04:35;6.00;94.50
2767;DHT22;1391;46.74287300;11.63683300;2024-03-22T00:07:01;6.00;93.50
2767;DHT22;1391;46.74287300;11.63683300;2024-03-22T00:09:28;6.30;95.00
2767;DHT22;1391;46.74287300;11.63683300;2024-03-22T00:11:54;6.20;97.10
2767;DHT22;1391;46.74287300;11.63683300;2024-03-22T00:14:23;6.10;98.80
2767;DHT22;1391;46.74287300;11.63683300;2024-03-22T00:16:49;5.70;99.40
2767;DHT22;1391;46.74287300;11.63683300;2024-03-22T00:19:17;6.00;99.90
2767;DHT22;1391;46.74287300;11.63683300;2024-03-22T00:21:43;5.70;97.70
2767;DHT22;1391;46.74287300;11.63683300;2024-03-22T00:24:10;5.40;99.00
2767;DHT22;1391;46.74287300;11.63683300;2024-03-22T00:26:36;5.70;99.90
2767;DHT22;1391;46.74287300;11.63683300;2024-03-22T00:29:04;5.70;99.90
2767;DHT22;1391;46.74287300;11.63683300;2024-03-22T00:31:31;6.10;99.90
2767;DHT22;1391;46.74287300;11.63683300;2024-03-22T00:33:58;6.30;99.90
2767;DHT22;1391;46.74287300;11.63683300;2024-03-22T00:36:24;6.20;99.90
2767;DHT22;1391;46.74287300;11.63683300;2024-03-22T00:38:52;6.00;99.90
2767;DHT22;1391;46.74287300;11.63683300;2024-03-22T00:41:18;5.70;96.60
2767;DHT22;1391;46.74287300;11.63683300;2024-03-22T00:43:45;5.70;98.80
2767;DHT22;1391;46.74287300;11.63683300;2024-03-22T00:46:11;6.00;99.90
2767;DHT22;1391;46.74287300;11.63683300;2024-03-22T00:48:40;5.70;99.10
2767;DHT22;1391;46.74287300;11.63683300;2024-03-22T00:51:06;5.40;99.90
2767;DHT22;1391;46.74287300;11.63683300;2024-03-22T00:53:34;5.90;99.90
2767;DHT22;1391;46.74287300;11.63683300;2024-03-22T00:56:00;5.40;99.90
2767;DHT22;1391;46.74287300;11.63683300;2024-03-22T00:58:27;5.10;99.90
2767;DHT22;1391;46.74287300;11.63683300;2024-03-22T01:00:54;5.10;99.90
2767;DHT22;1391;46.74287300;11.63683300;2024-03-22T01:03:21;5.10;99.90
2767;DHT22;1391;46.74287300;11.63683300;2024-03-22T01:05:49;5.40;99.90
2767;DHT22;1391;46.74287300;11.63683300;2024-03-22T01:08:16;5.30;99.90
2767;DHT22;1391;46.74287300;11.63683300;2024-03-22T01:10:42;5.40;99.90
2767;DHT22;1391;46.74287300;11.63683300;2024-03-22T01:13:09;5.30;99.90
2767;DHT22;1391;46.74287300;11.63683300;2024-03-22T01:15:36;5.40;99.90
2767;DHT22;1391;46.74287300;11.63683300;2024-03-22T01:18:03;5.40;99.90
2767;DHT22;1391;46.74287300;11.63683300;2024-03-22T01:20:30;5.60;99.90
2767;DHT22;1391;46.74287300;11.63683300;2024-03-22T01:23:00;5.00;99.90
2767;DHT22;1391;46.74287300;11.63683300;2024-03-22T01:25:26;4.70;99.90
2767;DHT22;1391;46.74287300;11.63683300;2024-03-22T01:27:54;5.00;99.90
2767;DHT22;1391;46.74287300;11.63683300;2024-03-22T01:30:21;4.90;99.90
2767;DHT22;1391;46.74287300;11.63683300;2024-03-22T01:32:48;5.60;99.90
2767;DHT22;1391;46.74287300;11.63683300;2024-03-22T01:35:14;5.30;99.90
2767;DHT22;1391;46.74287300;11.63683300;2024-03-22T01:37:42;5.10;99.90
2767;DHT22;1391;46.74287300;11.63683300;2024-03-22T01:40:10;5.10;99.90
2767;DHT22;1391;46.74287300;11.63683300;2024-03-22T01:42:39;5.10;99.90
2767;DHT22;1391;46.74287300;11.63683300;2024-03-22T01:45:06;5.30;99.90
2767;DHT22;1391;46.74287300;11.63683300;2024-03-22T01:47:34;5.30;99.90
2767;DHT22;1391;46.74287300;11.63683300;2024-03-22T01:50:01;5.40;99.90
2767;DHT22;1391;46.74287300;11.63683300;2024-03-22T01:52:31;5.30;99.90
2767;DHT22;1391;46.74287300;11.63683300;2024-03-22T01:54:58;5.40;99.90
2767;DHT22;1391;46.74287300;11.63683300;2024-03-22T01:57:30;5.30;99.90
2767;DHT22;1391;46.74287300;11.63683300;2024-03-22T01:59:57;5.10;99.90
2767;DHT22;1391;46.74287300;11.63683300;2024-03-22T02:02:25;5.10;99.90
2767;DHT22;1391;46.74287300;11.63683300;2024-03-22T02:04:52;4.90;99.90
2767;DHT22;1391;46.74287300;11.63683300;2024-03-22T02:07:19;4.40;99.90
2767;DHT22;1391;46.74287300;11.63683300;2024-03-22T02:09:45;4.70;99.90
2767;DHT22;1391;46.74287300;11.63683300;2024-03-22T02:12:13;4.60;99.90
2767;DHT22;1391;46.74287300;11.63683300;2024-03-22T02:14:41;5.00;99.90
2767;DHT22;1391;46.74287300;11.63683300;2024-03-22T02:17:08;4.70;99.90
2767;DHT22;1391;46.74287300;11.63683300;2024-03-22T02:19:34;5.20;99.90
2767;DHT22;1391;46.74287300;11.63683300;2024-03-22T02:22:01;4.90;99.90
2767;DHT22;1391;46.74287300;11.63683300;2024-03-22T02:24:29;4.90;99.90
2767;DHT22;1391;46.74287300;11.63683300;2024-03-22T02:26:56;4.90;99.90
2767;DHT22;1391;46.74287300;11.63683300;2024-03-22T02:29:22;5.30;99.90
2767;DHT22;1391;46.74287300;11.63683300;2024-03-22T02:31:49;4.80;99.90
2767;DHT22;1391;46.74287300;11.63683300;2024-03-22T02:34:16;5.00;99.90
2767;DHT22;1391;46.74287300;11.63683300;2024-03-22T02:36:43;4.40;99.90
2767;DHT22;1391;46.74287300;11.63683300;2024-03-22T02:39:10;4.10;99.90
2767;DHT22;1391;46.74287300;11.63683300;2024-03-22T02:41:38;4.40;99.90
2767;DHT22;1391;46.74287300;11.63683300;2024-03-22T02:44:05;4.70;99.90
2767;DHT22;1391;46.74287300;11.63683300;2024-03-22T02:46:32;4.60;99.90
2767;DHT22;1391;46.74287300;11.63683300;2024-03-22T02:48:58;4.70;99.90
2767;DHT22;1391;46.74287300;11.63683300;2024-03-22T02:51:25;4.70;99.90
2767;DHT22;1391;46.74287300;11.63683300;2024-03-22T02:53:51;5.20;99.90
2767;DHT22;1391;46.74287300;11.63683300;2024-03-22T02:56:18;4.60;99.90
2767;DHT22;1391;46.74287300;11.63683300;2024-03-22T02:58:46;4.40;99.90
2767;DHT22;1391;46.74287300;11.63683300;2024-03-22T03:01:13;4.40;99.90
2767;DHT22;1391;46.74287300;11.63683300;2024-03-22T03:03:39;4.40;99.90
2767;DHT22;1391;46.74287300;11.63683300;2024-03-22T03:06:06;4.40;99.90
2767;DHT22;1391;46.74287300;11.63683300;2024-03-22T03:08:34;4.40;99.90
2767;DHT22;1391;46.74287300;11.63683300;2024-03-22T03:11:01;4.40;99.90
2767;DHT22;1391;46.74287300;11.63683300;2024-03-22T03:13:27;4.40;99.90
2767;DHT22;1391;46.74287300;11.63683300;2024-03-22T03:15:56;4.40;99.90
2767;DHT22;1391;46.74287300;11.63683300;2024-03-22T03:18:22;4.40;99.90
2767;DHT22;1391;46.74287300;11.63683300;2024-03-22T03:20:50;4.40;99.90
2767;DHT22;1391;46.74287300;11.63683300;2024-03-22T03:23:16;4.10;99.90
2767;DHT22;1391;46.74287300;11.63683300;2024-03-22T03:25:43;4.40;99.90
2767;DHT22;1391;46.74287300;11.63683300;2024-03-22T03:28:12;4.00;99.90
2767;DHT22;1391;46.74287300;11.63683300;2024-03-22T03:30:40;4.00;99.90
2767;DHT22;1391;46.74287300;11.63683300;2024-03-22T03:33:07;4.40;99.90
2767;DHT22;1391;46.74287300;11.63683300;2024-03-22T03:35:35;4.20;99.90
2767;DHT22;1391;46.74287300;11.63683300;2024-03-22T03:38:01;4.20;99.90
2767;DHT22;1391;46.74287300;11.63683300;2024-03-22T03:40:28;4.00;99.90
2767;DHT22;1391;46.74287300;11.63683300;2024-03-22T03:42:54;4.00;99.90
2767;DHT22;1391;46.74287300;11.63683300;2024-03-22T03:45:21;4.00;99.90
2767;DHT22;1391;46.74287300;11.63683300;2024-03-22T03:47:48;4.00;99.90
2767;DHT22;1391;46.74287300;11.63683300;2024-03-22T03:50:16;4.10;99.90
2767;DHT22;1391;46.74287300;11.63683300;2024-03-22T03:52:42;3.60;99.90
2767;DHT22;1391;46.74287300;11.63683300;2024-03-22T03:55:10;4.10;99.90
2767;DHT22;1391;46.74287300;11.63683300;2024-03-22T03:57:36;4.00;99.90
2767;DHT22;1391;46.74287300;11.63683300;2024-03-22T04:00:04;3.80;99.90
2767;DHT22;1391;46.74287300;11.63683300;2024-03-22T04:02:31;3.80;99.90
2767;DHT22;1391;46.74287300;11.63683300;2024-03-22T04:04:58;3.90;99.90
2767;DHT22;1391;46.74287300;11.63683300;2024-03-22T04:07:26;3.70;99.90
2767;DHT22;1391;46.74287300;11.63683300;2024-03-22T04:09:54;3.60;99.90
2767;DHT22;1391;46.74287300;11.63683300;2024-03-22T04:12:21;3.80;99.90
2767;DHT22;1391;46.74287300;11.63683300;2024-03-22T04:14:48;3.60;99.90
2767;DHT22;1391;46.74287300;11.63683300;2024-03-22T04:17:14;3.30;99.90
2767;DHT22;1391;46.74287300;11.63683300;2024-03-22T04:19:41;3.60;99.90
2767;DHT22;1391;46.74287300;11.63683300;2024-03-22T04:22:07;3.60;99.90
2767;DHT22;1391;46.74287300;11.63683300;2024-03-22T04:24:36;3.60;99.90
2767;DHT22;1391;46.74287300;11.63683300;2024-03-22T04:27:02;3.60;99.90
2767;DHT22;1391;46.74287300;11.63683300;2024-03-22T04:29:30;3.60;99.90
2767;DHT22;1391;46.74287300;11.63683300;2024-03-22T04:31:56;3.50;99.90
2767;DHT22;1391;46.74287300;11.63683300;2024-03-22T04:34:23;3.30;99.90
2767;DHT22;1391;46.74287300;11.63683300;2024-03-22T04:36:50;3.40;99.90
2767;DHT22;1391;46.74287300;11.63683300;2024-03-22T04:39:19;3.70;99.90
2767;DHT22;1391;46.74287300;11.63683300;2024-03-22T04:41:47;3.30;99.90
2767;DHT22;1391;46.74287300;11.63683300;2024-03-22T04:44:15;3.40;99.90
2767;DHT22;1391;46.74287300;11.63683300;2024-03-22T04:46:42;3.50;99.90
2767;DHT22;1391;46.74287300;11.63683300;2024-03-22T04:49:08;3.60;99.90
2767;DHT22;1391;46.74287300;11.63683300;2024-03-22T04:51:35;3.70;99.90
2767;DHT22;1391;46.74287300;11.63683300;2024-03-22T04:54:02;3.60;99.90
2767;DHT22;1391;46.74287300;11.63683300;2024-03-22T04:56:29;3.50;99.90
2767;DHT22;1391;46.74287300;11.63683300;2024-03-22T04:58:56;3.60;99.90
2767;DHT22;1391;46.74287300;11.63683300;2024-03-22T05:01:24;3.50;99.90
2767;DHT22;1391;46.74287300;11.63683300;2024-03-22T05:03:50;3.40;99.90
2767;DHT22;1391;46.74287300;11.63683300;2024-03-22T05:06:18;3.40;99.90
2767;DHT22;1391;46.74287300;11.63683300;2024-03-22T05:08:44;2.80;99.90
2767;DHT22;1391;46.74287300;11.63683300;2024-03-22T05:11:11;3.40;99.90
2767;DHT22;1391;46.74287300;11.63683300;2024-03-22T05:13:37;3.40;99.90
2767;DHT22;1391;46.74287300;11.63683300;2024-03-22T05:16:07;3.40;99.90
2767;DHT22;1391;46.74287300;11.63683300;2024-03-22T05:18:33;3.50;99.90
2767;DHT22;1391;46.74287300;11.63683300;2024-03-22T05:21:00;3.50;99.90
2767;DHT22;1391;46.74287300;11.63683300;2024-03-22T05:23:26;3.40;99.90
2767;DHT22;1391;46.74287300;11.63683300;2024-03-22T05:25:54;3.40;99.90
2767;DHT22;1391;46.74287300;11.63683300;2024-03-22T05:28:20;3.40;99.90
2767;DHT22;1391;46.74287300;11.63683300;2024-03-22T05:30:47;3.40;99.90
2767;DHT22;1391;46.74287300;11.63683300;2024-03-22T05:33:15;3.50;99.90
2767;DHT22;1391;46.74287300;11.63683300;2024-03-22T05:35:42;3.70;99.90
2767;DHT22;1391;46.74287300;11.63683300;2024-03-22T05:38:08;3.60;99.90
2767;DHT22;1391;46.74287300;11.63683300;2024-03-22T05:40:36;3.70;99.90
2767;DHT22;1391;46.74287300;11.63683300;2024-03-22T05:43:04;3.60;99.90
2767;DHT22;1391;46.74287300;11.63683300;2024-03-22T05:45:31;3.70;99.90
2767;DHT22;1391;46.74287300;11.63683300;2024-03-22T05:47:57;3.50;99.90
2767;DHT22;1391;46.74287300;11.63683300;2024-03-22T05:50:26;3.70;99.90
2767;DHT22;1391;46.74287300;11.63683300;2024-03-22T05:52:52;3.70;99.90
2767;DHT22;1391;46.74287300;11.63683300;2024-03-22T05:55:19;3.50;99.90
2767;DHT22;1391;46.74287300;11.63683300;2024-03-22T05:57:45;3.50;99.90
2767;DHT22;1391;46.74287300;11.63683300;2024-03-22T06:00:13;3.70;99.90
2767;DHT22;1391;46.74287300;11.63683300;2024-03-22T06:02:39;3.50;99.90
2767;DHT22;1391;46.74287300;11.63683300;2024-03-22T06:05:07;3.60;99.90
2767;DHT22;1391;46.74287300;11.63683300;2024-03-22T06:07:35;3.70;99.90
2767;DHT22;1391;46.74287300;11.63683300;2024-03-22T06:10:08;3.40;99.90
2767;DHT22;1391;46.74287300;11.63683300;2024-03-22T06:12:35;3.80;99.90
2767;DHT22;1391;46.74287300;11.63683300;2024-03-22T06:15:03;3.80;99.90
2767;DHT22;1391;46.74287300;11.63683300;2024-03-22T06:17:32;4.00;99.90
2767;DHT22;1391;46.74287300;11.63683300;2024-03-22T06:19:59;4.00;99.90
2767;DHT22;1391;46.74287300;11.63683300;2024-03-22T06:22:25;4.00;99.90
2767;DHT22;1391;46.74287300;11.63683300;2024-03-22T06:24:54;4.00;99.90
2767;DHT22;1391;46.74287300;11.63683300;2024-03-22T06:27:20;4.50;99.90
2767;DHT22;1391;46.74287300;11.63683300;2024-03-22T06:29:47;4.50;99.90
2767;DHT22;1391;46.74287300;11.63683300;2024-03-22T06:32:13;4.50;99.90
2767;DHT22;1391;46.74287300;11.63683300;2024-03-22T06:34:41;5.10;99.90
2767;DHT22;1391;46.74287300;11.63683300;2024-03-22T06:37:07;5.10;99.90
2767;DHT22;1391;46.74287300;11.63683300;2024-03-22T06:39:34;5.10;99.90
2767;DHT22;1391;46.74287300;11.63683300;2024-03-22T06:42:02;5.40;99.90
2767;DHT22;1391;46.74287300;11.63683300;2024-03-22T06:44:29;5.50;99.90
2767;DHT22;1391;46.74287300;11.63683300;2024-03-22T06:46:55;5.80;99.90
2767;DHT22;1391;46.74287300;11.63683300;2024-03-22T06:49:23;6.00;99.90
2767;DHT22;1391;46.74287300;11.63683300;2024-03-22T06:51:49;6.30;95.80
2767;DHT22;1391;46.74287300;11.63683300;2024-03-22T06:54:16;6.70;89.80
2767;DHT22;1391;46.74287300;11.63683300;2024-03-22T06:56:42;7.20;81.40
2767;DHT22;1391;46.74287300;11.63683300;2024-03-22T06:59:11;7.10;73.20
2767;DHT22;1391;46.74287300;11.63683300;2024-03-22T07:01:37;7.20;67.70
2767;DHT22;1391;46.74287300;11.63683300;2024-03-22T07:04:04;7.00;58.20
2767;DHT22;1391;46.74287300;11.63683300;2024-03-22T07:06:30;7.50;54.80
2767;DHT22;1391;46.74287300;11.63683300;2024-03-22T07:08:58;7.80;48.80
2767;DHT22;1391;46.74287300;11.63683300;2024-03-22T07:11:24;7.90;52.10
2767;DHT22;1391;46.74287300;11.63683300;2024-03-22T07:13:51;7.70;52.90
2767;DHT22;1391;46.74287300;11.63683300;2024-03-22T07:16:19;8.00;46.30
2767;DHT22;1391;46.74287300;11.63683300;2024-03-22T07:18:46;8.10;39.20
2767;DHT22;1391;46.74287300;11.63683300;2024-03-22T07:21:14;8.70;39.00
2767;DHT22;1391;46.74287300;11.63683300;2024-03-22T07:23:41;8.70;34.20
2767;DHT22;1391;46.74287300;11.63683300;2024-03-22T07:26:07;8.60;26.60
2767;DHT22;1391;46.74287300;11.63683300;2024-03-22T07:28:35;8.90;25.80
2767;DHT22;1391;46.74287300;11.63683300;2024-03-22T07:31:02;9.00;23.70
2767;DHT22;1391;46.74287300;11.63683300;2024-03-22T07:33:31;9.10;23.70
2767;DHT22;1391;46.74287300;11.63683300;2024-03-22T07:36:01;9.30;18.90
2767;DHT22;1391;46.74287300;11.63683300;2024-03-22T07:38:29;9.50;17.70
2767;DHT22;1391;46.74287300;11.63683300;2024-03-22T07:40:55;9.40;16.70
2767;DHT22;1391;46.74287300;11.63683300;2024-03-22T07:43:22;9.60;18.90
2767;DHT22;1391;46.74287300;11.63683300;2024-03-22T07:45:49;9.70;14.30
2767;DHT22;1391;46.74287300;11.63683300;2024-03-22T07:48:16;9.60;10.30
2767;DHT22;1391;46.74287300;11.63683300;2024-03-22T07:50:44;9.70;9.90
2767;DHT22;1391;46.74287300;11.63683300;2024-03-22T07:53:11;10.10;7.20
2767;DHT22;1391;46.74287300;11.63683300;2024-03-22T07:55:39;10.00;6.40
2767;DHT22;1391;46.74287300;11.63683300;2024-03-22T07:58:06;10.90;5.40
2767;DHT22;1391;46.74287300;11.63683300;2024-03-22T08:00:33;10.80;3.90
2767;DHT22;1391;46.74287300;11.63683300;2024-03-22T08:03:00;11.20;2.80
2767;DHT22;1391;46.74287300;11.63683300;2024-03-22T08:05:26;11.00;1.00
2767;DHT22;1391;46.74287300;11.63683300;2024-03-22T08:07:56;10.90;1.00
2767;DHT22;1391;46.74287300;11.63683300;2024-03-22T08:10:23;10.40;1.00
2767;DHT22;1391;46.74287300;11.63683300;2024-03-22T08:12:50;10.60;2.30
2767;DHT22;1391;46.74287300;11.63683300;2024-03-22T08:15:18;10.80;1.00
2767;DHT22;1391;46.74287300;11.63683300;2024-03-22T08:17:45;10.80;1.60
2767;DHT22;1391;46.74287300;11.63683300;2024-03-22T08:20:12;10.90;1.00
2767;DHT22;1391;46.74287300;11.63683300;2024-03-22T08:22:39;11.10;1.00
2767;DHT22;1391;46.74287300;11.63683300;2024-03-22T08:25:07;11.20;1.00
2767;DHT22;1391;46.74287300;11.63683300;2024-03-22T08:27:35;10.80;1.00
2767;DHT22;1391;46.74287300;11.63683300;2024-03-22T08:30:01;11.70;1.00
2767;DHT22;1391;46.74287300;11.63683300;2024-03-22T08:32:30;11.70;1.00
2767;DHT22;1391;46.74287300;11.63683300;2024-03-22T08:34:56;12.10;1.00
2767;DHT22;1391;46.74287300;11.63683300;2024-03-22T08:37:24;12.40;1.00
2767;DHT22;1391;46.74287300;11.63683300;2024-03-22T08:39:51;12.50;1.00
2767;DHT22;1391;46.74287300;11.63683300;2024-03-22T08:42:20;12.00;1.00
2767;DHT22;1391;46.74287300;11.63683300;2024-03-22T08:44:46;12.60;1.00
2767;DHT22;1391;46.74287300;11.63683300;2024-03-22T08:47:14;12.40;1.00
2767;DHT22;1391;46.74287300;11.63683300;2024-03-22T08:49:40;12.70;1.00
2767;DHT22;1391;46.74287300;11.63683300;2024-03-22T08:52:10;13.20;1.00
2767;DHT22;1391;46.74287300;11.63683300;2024-03-22T08:54:36;13.10;1.00
2767;DHT22;1391;46.74287300;11.63683300;2024-03-22T08:57:03;13.10;1.00
2767;DHT22;1391;46.74287300;11.63683300;2024-03-22T08:59:31;13.10;1.00
2767;DHT22;1391;46.74287300;11.63683300;2024-03-22T09:01:59;13.80;1.00
2767;DHT22;1391;46.74287300;11.63683300;2024-03-22T09:04:25;14.20;1.00
2767;DHT22;1391;46.74287300;11.63683300;2024-03-22T09:06:53;13.40;1.00
2767;DHT22;1391;46.74287300;11.63683300;2024-03-22T09:09:20;13.60;1.00
2767;DHT22;1391;46.74287300;11.63683300;2024-03-22T09:11:47;13.50;1.00
2767;DHT22;1391;46.74287300;11.63683300;2024-03-22T09:14:14;13.40;1.00
2767;DHT22;1391;46.74287300;11.63683300;2024-03-22T09:16:44;14.00;1.00
2767;DHT22;1391;46.74287300;11.63683300;2024-03-22T09:19:10;14.10;1.00
2767;DHT22;1391;46.74287300;11.63683300;2024-03-22T09:21:37;14.30;1.00
2767;DHT22;1391;46.74287300;11.63683300;2024-03-22T09:24:05;14.00;1.00
2767;DHT22;1391;46.74287300;11.63683300;2024-03-22T09:26:32;14.90;1.00
2767;DHT22;1391;46.74287300;11.63683300;2024-03-22T09:28:59;15.50;1.00
2767;DHT22;1391;46.74287300;11.63683300;2024-03-22T09:31:26;15.50;1.00
2767;DHT22;1391;46.74287300;11.63683300;2024-03-22T09:33:55;15.60;1.00
2767;DHT22;1391;46.74287300;11.63683300;2024-03-22T09:36:21;16.00;1.00
2767;DHT22;1391;46.74287300;11.63683300;2024-03-22T09:38:50;15.30;1.00
2767;DHT22;1391;46.74287300;11.63683300;2024-03-22T09:41:19;15.50;1.00
2767;DHT22;1391;46.74287300;11.63683300;2024-03-22T09:43:51;15.50;1.00
2767;DHT22;1391;46.74287300;11.63683300;2024-03-22T09:46:19;16.10;1.00
2767;DHT22;1391;46.74287300;11.63683300;2024-03-22T09:48:48;16.20;1.00
2767;DHT22;1391;46.74287300;11.63683300;2024-03-22T09:51:16;16.00;1.00
2767;DHT22;1391;46.74287300;11.63683300;2024-03-22T09:53:44;15.60;1.00
2767;DHT22;1391;46.74287300;11.63683300;2024-03-22T09:56:14;16.00;1.00
2767;DHT22;1391;46.74287300;11.63683300;2024-03-22T09:58:42;16.50;1.00
2767;DHT22;1391;46.74287300;11.63683300;2024-03-22T10:01:08;16.30;1.00
2767;DHT22;1391;46.74287300;11.63683300;2024-03-22T10:03:36;16.60;1.00
2767;DHT22;1391;46.74287300;11.63683300;2024-03-22T10:06:03;16.50;1.00
2767;DHT22;1391;46.74287300;11.63683300;2024-03-22T10:08:33;15.90;1.00
2767;DHT22;1391;46.74287300;11.63683300;2024-03-22T10:11:02;15.80;1.00
2767;DHT22;1391;46.74287300;11.63683300;2024-03-22T10:13:30;15.90;1.00
2767;DHT22;1391;46.74287300;11.63683300;2024-03-22T10:15:57;16.50;1.00
2767;DHT22;1391;46.74287300;11.63683300;2024-03-22T10:18:25;15.90;1.00
2767;DHT22;1391;46.74287300;11.63683300;2024-03-22T10:20:59;15.90;1.00
2767;DHT22;1391;46.74287300;11.63683300;2024-03-22T10:23:28;15.90;1.00
2767;DHT22;1391;46.74287300;11.63683300;2024-03-22T10:25:56;16.60;1.00
2767;DHT22;1391;46.74287300;11.63683300;2024-03-22T10:28:24;16.80;1.00
2767;DHT22;1391;46.74287300;11.63683300;2024-03-22T10:30:51;17.20;1.00
2767;DHT22;1391;46.74287300;11.63683300;2024-03-22T10:33:19;17.20;1.00
2767;DHT22;1391;46.74287300;11.63683300;2024-03-22T10:35:51;17.20;1.00
2767;DHT22;1391;46.74287300;11.63683300;2024-03-22T10:38:19;17.10;1.00
2767;DHT22;1391;46.74287300;11.63683300;2024-03-22T10:40:46;17.10;1.00
2767;DHT22;1391;46.74287300;11.63683300;2024-03-22T10:43:16;17.70;1.00
2767;DHT22;1391;46.74287300;11.63683300;2024-03-22T10:45:43;17.90;1.00
2767;DHT22;1391;46.74287300;11.63683300;2024-03-22T10:48:17;17.00;1.00
2767;DHT22;1391;46.74287300;11.63683300;2024-03-22T10:50:43;17.10;1.00
2767;DHT22;1391;46.74287300;11.63683300;2024-03-22T10:53:13;17.00;1.00
2767;DHT22;1391;46.74287300;11.63683300;2024-03-22T10:55:43;17.90;1.00
2767;DHT22;1391;46.74287300;11.63683300;2024-03-22T10:58:16;18.80;1.00
2767;DHT22;1391;46.74287300;11.63683300;2024-03-22T11:00:43;19.10;1.00
2767;DHT22;1391;46.74287300;11.63683300;2024-03-22T11:03:12;18.80;1.00
2767;DHT22;1391;46.74287300;11.63683300;2024-03-22T11:05:45;18.70;1.00
2767;DHT22;1391;46.74287300;11.63683300;2024-03-22T11:08:12;18.70;1.00
2767;DHT22;1391;46.74287300;11.63683300;2024-03-22T11:10:39;18.60;1.00
2767;DHT22;1391;46.74287300;11.63683300;2024-03-22T11:13:09;18.70;1.00
2767;DHT22;1391;46.74287300;11.63683300;2024-03-22T11:15:36;18.70;1.00
2767;DHT22;1391;46.74287300;11.63683300;2024-03-22T11:18:04;18.60;1.00
2767;DHT22;1391;46.74287300;11.63683300;2024-03-22T11:20:30;18.70;1.00
2767;DHT22;1391;46.74287300;11.63683300;2024-03-22T11:22:57;18.20;1.00
2767;DHT22;1391;46.74287300;11.63683300;2024-03-22T11:25:24;18.10;1.00
2767;DHT22;1391;46.74287300;11.63683300;2024-03-22T11:27:51;18.60;1.00
2767;DHT22;1391;46.74287300;11.63683300;2024-03-22T11:30:20;18.70;1.00
2767;DHT22;1391;46.74287300;11.63683300;2024-03-22T11:32:48;18.70;1.00
2767;DHT22;1391;46.74287300;11.63683300;2024-03-22T11:35:15;18.80;1.00
2767;DHT22;1391;46.74287300;11.63683300;2024-03-22T11:37:42;18.70;1.00
2767;DHT22;1391;46.74287300;11.63683300;2024-03-22T11:40:09;18.70;1.00
2767;DHT22;1391;46.74287300;11.63683300;2024-03-22T11:42:38;18.70;1.00
2767;DHT22;1391;46.74287300;11.63683300;2024-03-22T11:45:07;18.60;1.00
2767;DHT22;1391;46.74287300;11.63683300;2024-03-22T11:47:36;19.60;1.00
2767;DHT22;1391;46.74287300;11.63683300;2024-03-22T11:50:05;19.60;1.00
2767;DHT22;1391;46.74287300;11.63683300;2024-03-22T11:52:34;19.30;1.00
2767;DHT22;1391;46.74287300;11.63683300;2024-03-22T11:55:00;19.50;1.00
2767;DHT22;1391;46.74287300;11.63683300;2024-03-22T11:57:28;20.40;1.00
2767;DHT22;1391;46.74287300;11.63683300;2024-03-22T11:59:59;20.00;1.00
2767;DHT22;1391;46.74287300;11.63683300;2024-03-22T12:02:28;20.30;1.00
2767;DHT22;1391;46.74287300;11.63683300;2024-03-22T12:04:54;20.10;1.00
2767;DHT22;1391;46.74287300;11.63683300;2024-03-22T12:07:24;20.10;1.00
2767;DHT22;1391;46.74287300;11.63683300;2024-03-22T12:09:50;19.40;1.00
2767;DHT22;1391;46.74287300;11.63683300;2024-03-22T12:12:21;20.20;1.00
2767;DHT22;1391;46.74287300;11.63683300;2024-03-22T12:14:48;20.10;1.00
2767;DHT22;1391;46.74287300;11.63683300;2024-03-22T12:17:17;20.00;1.00
2767;DHT22;1391;46.74287300;11.63683300;2024-03-22T12:19:43;20.70;1.00
2767;DHT22;1391;46.74287300;11.63683300;2024-03-22T12:22:11;20.40;1.00
2767;DHT22;1391;46.74287300;11.63683300;2024-03-22T12:24:40;21.00;1.00
2767;DHT22;1391;46.74287300;11.63683300;2024-03-22T12:27:07;20.20;1.00
2767;DHT22;1391;46.74287300;11.63683300;2024-03-22T12:29:34;20.20;1.00
2767;DHT22;1391;46.74287300;11.63683300;2024-03-22T12:32:02;20.20;1.00
2767;DHT22;1391;46.74287300;11.63683300;2024-03-22T12:34:29;20.20;1.00
2767;DHT22;1391;46.74287300;11.63683300;2024-03-22T12:36:58;20.10;1.00
2767;DHT22;1391;46.74287300;11.63683300;2024-03-22T12:39:24;20.90;1.00
2767;DHT22;1391;46.74287300;11.63683300;2024-03-22T12:41:53;19.90;1.00
2767;DHT22;1391;46.74287300;11.63683300;2024-03-22T12:44:20;20.00;1.00
2767;DHT22;1391;46.74287300;11.63683300;2024-03-22T12:46:47;20.30;1.00
2767;DHT22;1391;46.74287300;11.63683300;2024-03-22T12:49:14;20.90;1.00
2767;DHT22;1391;46.74287300;11.63683300;2024-03-22T12:51:41;20.10;1.00
2767;DHT22;1391;46.74287300;11.63683300;2024-03-22T12:54:08;20.10;1.00
2767;DHT22;1391;46.74287300;11.63683300;2024-03-22T12:56:36;20.00;1.00
2767;DHT22;1391;46.74287300;11.63683300;2024-03-22T12:59:04;20.30;1.00
2767;DHT22;1391;46.74287300;11.63683300;2024-03-22T13:01:31;20.90;1.00
2767;DHT22;1391;46.74287300;11.63683300;2024-03-22T13:03:57;20.00;1.00
2767;DHT22;1391;46.74287300;11.63683300;2024-03-22T13:06:25;20.70;1.00
2767;DHT22;1391;46.74287300;11.63683300;2024-03-22T13:08:51;20.00;1.00
2767;DHT22;1391;46.74287300;11.63683300;2024-03-22T13:11:18;20.60;1.00
2767;DHT22;1391;46.74287300;11.63683300;2024-03-22T13:13:44;20.60;1.00
2767;DHT22;1391;46.74287300;11.63683300;2024-03-22T13:16:15;20.20;1.00
2767;DHT22;1391;46.74287300;11.63683300;2024-03-22T13:18:43;21.00;1.00
2767;DHT22;1391;46.74287300;11.63683300;2024-03-22T13:21:11;21.00;1.00
2767;DHT22;1391;46.74287300;11.63683300;2024-03-22T13:23:38;20.70;1.00
2767;DHT22;1391;46.74287300;11.63683300;2024-03-22T13:26:05;20.80;1.00
2767;DHT22;1391;46.74287300;11.63683300;2024-03-22T13:28:32;20.70;1.00
2767;DHT22;1391;46.74287300;11.63683300;2024-03-22T13:31:00;20.80;1.00
2767;DHT22;1391;46.74287300;11.63683300;2024-03-22T13:33:30;20.70;1.00
2767;DHT22;1391;46.74287300;11.63683300;2024-03-22T13:35:57;20.70;1.00
2767;DHT22;1391;46.74287300;11.63683300;2024-03-22T13:38:24;20.80;1.00
2767;DHT22;1391;46.74287300;11.63683300;2024-03-22T13:40:53;20.60;1.00
2767;DHT22;1391;46.74287300;11.63683300;2024-03-22T13:43:20;20.10;1.00
2767;DHT22;1391;46.74287300;11.63683300;2024-03-22T13:45:51;20.20;1.00
2767;DHT22;1391;46.74287300;11.63683300;2024-03-22T13:48:20;20.70;1.00